MMTG/TGZ METAR and TAF weather

Enter ICAO airport designator
Station Type Date Time Source
MMTG METAR 2021/08/05 04:47 UTC NOAA

MMTG 050447Z 00000KT 3SM BR SCT003 BKN020 OVC070 22/22 A3008 RMK 60055 8/76/ LTNG DSTN N/NW VRBL COND


Station Type Date Time Source
MMTG Decoded METAR 2021/08/05 04:47 UTC NOAA

Tuxtla Gutierrez, Chis., Mexico (MMTG) 16-45N 093-07W
Aug 05, 2021 - 12:47 AM EDT / 2021.08.05 0447 UTC
Wind: Calm:0
Visibility: 3 mile(s):0
Sky conditions: overcast
Weather: mist
Temperature: 71 F (22 C)
Dew Point: 71 F (22 C)
Relative Humidity: 100%
Pressure (altimeter): 30.08 in. Hg (1018 hPa)
ob: MMTG 050447Z 00000KT 3SM BR SCT003 BKN020 OVC070 22/22 A3008 RMK 60055 8/76/ LTNG DSTN N/NW VRBL COND
cycle: 5

Station Type Date Time Source
MMTG TAF 2021/08/04 18:56 UTC NOAA

TAF MMTG 041653Z 0418/0518 26010KT P6SM SCT020 SCT080 BKN250
BECMG 0420/0421 P6SM VC RA BKN020CB
TEMPO 0422/0502 4SM TSRA
FM050400 00000KT 4SM HZ BKN015 BKN080 BKN220
TEMPO 0510/0514 2SM BR
FM051500 22006KT 6SM HZ BKN020 BKN220

Example: see airport list